sensor_id;sensor_type;location;lat;lon;timestamp;P1;durP1;ratioP1;P2;durP2;ratioP2
69246;SDS011;56358;56.328;43.992;2022-09-14T00:00:25;7.55;;;3.55;;
69246;SDS011;56358;56.328;43.992;2022-09-14T00:02:26;6.20;;;3.58;;
69246;SDS011;56358;56.328;43.992;2022-09-14T00:04:27;5.93;;;3.70;;
69246;SDS011;56358;56.328;43.992;2022-09-14T00:06:27;6.00;;;3.47;;
69246;SDS011;56358;56.328;43.992;2022-09-14T00:08:29;7.28;;;3.70;;
69246;SDS011;56358;56.328;43.992;2022-09-14T00:10:30;5.97;;;3.70;;
69246;SDS011;56358;56.328;43.992;2022-09-14T00:12:31;5.72;;;3.60;;
69246;SDS011;56358;56.328;43.992;2022-09-14T00:14:31;4.88;;;3.30;;
69246;SDS011;56358;56.328;43.992;2022-09-14T00:16:34;5.97;;;3.40;;
69246;SDS011;56358;56.328;43.992;2022-09-14T00:18:36;5.72;;;3.40;;
69246;SDS011;56358;56.328;43.992;2022-09-14T00:20:37;5.68;;;3.40;;
69246;SDS011;56358;56.328;43.992;2022-09-14T00:22:38;6.40;;;3.63;;
69246;SDS011;56358;56.328;43.992;2022-09-14T00:24:38;7.78;;;3.45;;
69246;SDS011;56358;56.328;43.992;2022-09-14T00:26:39;5.95;;;3.45;;
69246;SDS011;56358;56.328;43.992;2022-09-14T00:28:44;5.70;;;3.50;;
69246;SDS011;56358;56.328;43.992;2022-09-14T00:30:46;5.72;;;3.42;;
69246;SDS011;56358;56.328;43.992;2022-09-14T00:32:47;5.72;;;3.70;;
69246;SDS011;56358;56.328;43.992;2022-09-14T00:34:49;5.90;;;3.70;;
69246;SDS011;56358;56.328;43.992;2022-09-14T00:36:50;8.07;;;4.07;;
69246;SDS011;56358;56.328;43.992;2022-09-14T00:38:52;6.47;;;3.35;;
69246;SDS011;56358;56.328;43.992;2022-09-14T00:40:57;6.43;;;3.58;;
69246;SDS011;56358;56.328;43.992;2022-09-14T00:43:00;6.20;;;3.42;;
69246;SDS011;56358;56.328;43.992;2022-09-14T00:45:03;5.68;;;3.25;;
69246;SDS011;56358;56.328;43.992;2022-09-14T00:47:09;5.15;;;3.30;;
69246;SDS011;56358;56.328;43.992;2022-09-14T00:49:13;7.82;;;3.75;;
69246;SDS011;56358;56.328;43.992;2022-09-14T00:51:15;5.70;;;3.38;;
69246;SDS011;56358;56.328;43.992;2022-09-14T00:53:17;6.47;;;3.85;;
69246;SDS011;56358;56.328;43.992;2022-09-14T00:55:19;6.90;;;3.60;;
69246;SDS011;56358;56.328;43.992;2022-09-14T00:57:22;7.20;;;3.28;;
69246;SDS011;56358;56.328;43.992;2022-09-14T00:59:25;5.60;;;3.13;;
69246;SDS011;56358;56.328;43.992;2022-09-14T01:01:30;6.43;;;3.30;;
69246;SDS011;56358;56.328;43.992;2022-09-14T01:03:30;6.05;;;3.60;;
69246;SDS011;56358;56.328;43.992;2022-09-14T01:05:42;5.65;;;3.38;;
69246;SDS011;56358;56.328;43.992;2022-09-14T01:08:05;7.82;;;3.47;;
69246;SDS011;56358;56.328;43.992;2022-09-14T01:21:50;5.75;;;3.28;;
69246;SDS011;56358;56.328;43.992;2022-09-14T01:24:10;7.32;;;3.60;;
69246;SDS011;56358;56.328;43.992;2022-09-14T01:26:33;6.25;;;3.58;;
69246;SDS011;56358;56.328;43.992;2022-09-14T01:29:05;6.28;;;3.40;;
69246;SDS011;56358;56.328;43.992;2022-09-14T01:31:22;6.18;;;3.63;;
69246;SDS011;56358;56.328;43.992;2022-09-14T01:33:33;7.45;;;3.53;;
69246;SDS011;56358;56.328;43.992;2022-09-14T01:35:41;5.68;;;3.60;;
69246;SDS011;56358;56.328;43.992;2022-09-14T01:37:50;5.97;;;3.40;;
69246;SDS011;56358;56.328;43.992;2022-09-14T01:40:07;6.07;;;3.38;;
69246;SDS011;56358;56.328;43.992;2022-09-14T01:42:15;6.05;;;4.00;;
69246;SDS011;56358;56.328;43.992;2022-09-14T01:44:30;5.20;;;3.38;;
69246;SDS011;56358;56.328;43.992;2022-09-14T01:46:37;5.85;;;3.97;;
69246;SDS011;56358;56.328;43.992;2022-09-14T01:48:52;5.68;;;3.72;;
69246;SDS011;56358;56.328;43.992;2022-09-14T01:51:02;7.10;;;3.88;;
69246;SDS011;56358;56.328;43.992;2022-09-14T01:55:27;7.28;;;3.60;;
69246;SDS011;56358;56.328;43.992;2022-09-14T01:57:38;6.60;;;4.03;;
69246;SDS011;56358;56.328;43.992;2022-09-14T01:59:43;6.10;;;4.30;;
69246;SDS011;56358;56.328;43.992;2022-09-14T02:01:47;5.95;;;3.92;;
69246;SDS011;56358;56.328;43.992;2022-09-14T02:03:53;6.78;;;4.15;;
69246;SDS011;56358;56.328;43.992;2022-09-14T02:06:04;6.60;;;4.07;;
69246;SDS011;56358;56.328;43.992;2022-09-14T02:08:10;8.02;;;4.10;;
69246;SDS011;56358;56.328;43.992;2022-09-14T02:10:11;6.50;;;4.38;;
69246;SDS011;56358;56.328;43.992;2022-09-14T02:12:14;8.00;;;4.60;;
69246;SDS011;56358;56.328;43.992;2022-09-14T02:14:16;7.57;;;4.15;;
69246;SDS011;56358;56.328;43.992;2022-09-14T02:16:17;9.10;;;4.25;;
69246;SDS011;56358;56.328;43.992;2022-09-14T02:18:18;7.93;;;4.53;;
69246;SDS011;56358;56.328;43.992;2022-09-14T02:20:22;7.43;;;4.50;;
69246;SDS011;56358;56.328;43.992;2022-09-14T02:22:41;7.90;;;3.97;;
69246;SDS011;56358;56.328;43.992;2022-09-14T02:24:42;7.45;;;4.53;;
69246;SDS011;56358;56.328;43.992;2022-09-14T02:26:43;6.28;;;4.13;;
69246;SDS011;56358;56.328;43.992;2022-09-14T02:28:46;7.95;;;4.43;;
69246;SDS011;56358;56.328;43.992;2022-09-14T02:30:48;7.72;;;4.68;;
69246;SDS011;56358;56.328;43.992;2022-09-14T02:33:06;8.13;;;4.32;;
69246;SDS011;56358;56.328;43.992;2022-09-14T02:35:29;8.10;;;4.43;;
69246;SDS011;56358;56.328;43.992;2022-09-14T02:39:51;6.85;;;4.00;;
69246;SDS011;56358;56.328;43.992;2022-09-14T02:46:57;8.35;;;4.35;;
69246;SDS011;56358;56.328;43.992;2022-09-14T02:51:14;7.53;;;4.65;;
69246;SDS011;56358;56.328;43.992;2022-09-14T02:53:34;7.68;;;5.18;;
69246;SDS011;56358;56.328;43.992;2022-09-14T02:55:45;7.20;;;4.65;;
69246;SDS011;56358;56.328;43.992;2022-09-14T02:58:07;7.45;;;4.82;;
69246;SDS011;56358;56.328;43.992;2022-09-14T03:00:09;7.57;;;4.50;;
69246;SDS011;56358;56.328;43.992;2022-09-14T03:02:11;8.32;;;5.20;;
69246;SDS011;56358;56.328;43.992;2022-09-14T03:04:11;7.68;;;5.05;;
69246;SDS011;56358;56.328;43.992;2022-09-14T03:06:12;8.50;;;4.82;;
69246;SDS011;56358;56.328;43.992;2022-09-14T03:08:13;9.50;;;4.93;;
69246;SDS011;56358;56.328;43.992;2022-09-14T03:10:14;7.55;;;4.32;;
69246;SDS011;56358;56.328;43.992;2022-09-14T03:12:15;7.13;;;4.55;;
69246;SDS011;56358;56.328;43.992;2022-09-14T03:14:16;6.35;;;4.25;;
69246;SDS011;56358;56.328;43.992;2022-09-14T03:16:17;8.00;;;4.80;;
69246;SDS011;56358;56.328;43.992;2022-09-14T03:18:18;7.28;;;4.72;;
69246;SDS011;56358;56.328;43.992;2022-09-14T03:20:26;8.60;;;5.40;;
69246;SDS011;56358;56.328;43.992;2022-09-14T03:22:28;8.10;;;4.88;;
69246;SDS011;56358;56.328;43.992;2022-09-14T03:24:28;8.82;;;4.93;;
69246;SDS011;56358;56.328;43.992;2022-09-14T03:26:30;8.07;;;4.53;;
69246;SDS011;56358;56.328;43.992;2022-09-14T03:28:36;7.53;;;5.18;;
69246;SDS011;56358;56.328;43.992;2022-09-14T03:30:36;6.35;;;4.22;;
69246;SDS011;56358;56.328;43.992;2022-09-14T03:32:37;6.82;;;4.50;;
69246;SDS011;56358;56.328;43.992;2022-09-14T03:34:38;9.90;;;5.10;;
69246;SDS011;56358;56.328;43.992;2022-09-14T03:36:38;7.72;;;4.35;;
69246;SDS011;56358;56.328;43.992;2022-09-14T03:38:43;6.97;;;4.13;;
69246;SDS011;56358;56.328;43.992;2022-09-14T03:40:44;7.13;;;4.43;;
69246;SDS011;56358;56.328;43.992;2022-09-14T03:42:46;7.47;;;4.85;;
69246;SDS011;56358;56.328;43.992;2022-09-14T03:44:48;8.95;;;5.13;;
69246;SDS011;56358;56.328;43.992;2022-09-14T03:46:49;8.18;;;4.72;;
69246;SDS011;56358;56.328;43.992;2022-09-14T03:48:50;7.80;;;5.38;;
69246;SDS011;56358;56.328;43.992;2022-09-14T03:50:51;8.05;;;5.03;;
69246;SDS011;56358;56.328;43.992;2022-09-14T03:52:51;8.00;;;4.88;;
69246;SDS011;56358;56.328;43.992;2022-09-14T03:54:52;11.02;;;5.38;;
69246;SDS011;56358;56.328;43.992;2022-09-14T03:56:53;9.45;;;5.15;;
69246;SDS011;56358;56.328;43.992;2022-09-14T03:58:54;9.80;;;5.00;;
69246;SDS011;56358;56.328;43.992;2022-09-14T04:00:54;8.10;;;5.15;;
69246;SDS011;56358;56.328;43.992;2022-09-14T04:02:58;8.70;;;5.80;;
69246;SDS011;56358;56.328;43.992;2022-09-14T04:04:59;8.60;;;5.55;;
69246;SDS011;56358;56.328;43.992;2022-09-14T04:07:00;8.95;;;5.75;;
69246;SDS011;56358;56.328;43.992;2022-09-14T04:09:00;8.98;;;5.18;;
69246;SDS011;56358;56.328;43.992;2022-09-14T04:13:12;8.98;;;5.55;;
69246;SDS011;56358;56.328;43.992;2022-09-14T04:15:13;7.63;;;4.07;;
69246;SDS011;56358;56.328;43.992;2022-09-14T04:17:14;10.00;;;5.50;;
69246;SDS011;56358;56.328;43.992;2022-09-14T04:19:16;8.52;;;5.60;;
69246;SDS011;56358;56.328;43.992;2022-09-14T04:21:18;11.50;;;5.57;;
69246;SDS011;56358;56.328;43.992;2022-09-14T04:23:21;8.88;;;5.32;;
69246;SDS011;56358;56.328;43.992;2022-09-14T04:25:22;9.35;;;5.32;;
69246;SDS011;56358;56.328;43.992;2022-09-14T04:27:22;9.07;;;5.88;;
69246;SDS011;56358;56.328;43.992;2022-09-14T04:29:23;7.93;;;5.13;;
69246;SDS011;56358;56.328;43.992;2022-09-14T04:31:24;10.15;;;5.90;;
69246;SDS011;56358;56.328;43.992;2022-09-14T04:33:27;8.80;;;5.45;;
69246;SDS011;56358;56.328;43.992;2022-09-14T04:35:30;9.27;;;5.88;;
69246;SDS011;56358;56.328;43.992;2022-09-14T04:37:30;8.82;;;5.63;;
69246;SDS011;56358;56.328;43.992;2022-09-14T04:39:32;8.95;;;5.95;;
69246;SDS011;56358;56.328;43.992;2022-09-14T04:41:32;10.40;;;6.18;;
69246;SDS011;56358;56.328;43.992;2022-09-14T04:43:33;7.45;;;5.20;;
69246;SDS011;56358;56.328;43.992;2022-09-14T04:45:34;7.93;;;5.63;;
69246;SDS011;56358;56.328;43.992;2022-09-14T04:47:36;11.93;;;6.57;;
69246;SDS011;56358;56.328;43.992;2022-09-14T04:49:37;7.97;;;5.70;;
69246;SDS011;56358;56.328;43.992;2022-09-14T04:51:37;11.70;;;6.20;;
69246;SDS011;56358;56.328;43.992;2022-09-14T04:53:38;9.55;;;6.20;;
69246;SDS011;56358;56.328;43.992;2022-09-14T04:55:40;9.88;;;6.28;;
69246;SDS011;56358;56.328;43.992;2022-09-14T04:57:40;10.50;;;6.05;;
69246;SDS011;56358;56.328;43.992;2022-09-14T04:59:41;11.18;;;6.30;;
69246;SDS011;56358;56.328;43.992;2022-09-14T05:01:43;9.55;;;5.88;;
69246;SDS011;56358;56.328;43.992;2022-09-14T05:03:46;9.52;;;6.30;;
69246;SDS011;56358;56.328;43.992;2022-09-14T05:05:47;8.85;;;5.88;;
69246;SDS011;56358;56.328;43.992;2022-09-14T05:07:48;10.63;;;5.80;;
69246;SDS011;56358;56.328;43.992;2022-09-14T05:09:48;9.73;;;5.82;;
69246;SDS011;56358;56.328;43.992;2022-09-14T05:11:49;9.25;;;5.85;;
69246;SDS011;56358;56.328;43.992;2022-09-14T05:13:51;9.35;;;6.18;;
69246;SDS011;56358;56.328;43.992;2022-09-14T05:15:51;10.90;;;6.40;;
69246;SDS011;56358;56.328;43.992;2022-09-14T05:17:52;8.93;;;6.10;;
69246;SDS011;56358;56.328;43.992;2022-09-14T05:19:53;9.73;;;5.72;;
69246;SDS011;56358;56.328;43.992;2022-09-14T05:21:54;10.60;;;6.30;;
69246;SDS011;56358;56.328;43.992;2022-09-14T05:23:55;9.55;;;5.93;;
69246;SDS011;56358;56.328;43.992;2022-09-14T05:26:00;9.48;;;5.75;;
69246;SDS011;56358;56.328;43.992;2022-09-14T05:28:02;9.70;;;6.20;;
69246;SDS011;56358;56.328;43.992;2022-09-14T05:30:02;10.70;;;6.53;;
69246;SDS011;56358;56.328;43.992;2022-09-14T05:32:04;10.25;;;6.65;;
69246;SDS011;56358;56.328;43.992;2022-09-14T05:34:05;9.23;;;6.10;;
69246;SDS011;56358;56.328;43.992;2022-09-14T05:36:09;9.85;;;5.32;;
69246;SDS011;56358;56.328;43.992;2022-09-14T05:38:09;10.52;;;6.20;;
69246;SDS011;56358;56.328;43.992;2022-09-14T05:40:10;9.27;;;5.68;;
69246;SDS011;56358;56.328;43.992;2022-09-14T05:42:11;12.38;;;5.80;;
69246;SDS011;56358;56.328;43.992;2022-09-14T05:44:11;9.70;;;5.60;;
69246;SDS011;56358;56.328;43.992;2022-09-14T05:46:14;10.68;;;5.82;;
69246;SDS011;56358;56.328;43.992;2022-09-14T05:48:16;10.70;;;6.00;;
69246;SDS011;56358;56.328;43.992;2022-09-14T05:50:17;13.68;;;6.60;;
69246;SDS011;56358;56.328;43.992;2022-09-14T05:52:18;10.15;;;5.85;;
69246;SDS011;56358;56.328;43.992;2022-09-14T05:54:20;9.85;;;6.40;;
69246;SDS011;56358;56.328;43.992;2022-09-14T05:56:21;12.85;;;6.30;;
69246;SDS011;56358;56.328;43.992;2022-09-14T05:58:23;11.77;;;6.80;;
69246;SDS011;56358;56.328;43.992;2022-09-14T06:00:23;10.80;;;6.57;;
69246;SDS011;56358;56.328;43.992;2022-09-14T06:02:24;10.45;;;6.32;;
69246;SDS011;56358;56.328;43.992;2022-09-14T06:04:25;9.75;;;6.63;;
69246;SDS011;56358;56.328;43.992;2022-09-14T06:06:26;8.98;;;6.10;;
69246;SDS011;56358;56.328;43.992;2022-09-14T06:08:27;9.98;;;6.30;;
69246;SDS011;56358;56.328;43.992;2022-09-14T06:10:28;9.98;;;6.07;;
69246;SDS011;56358;56.328;43.992;2022-09-14T06:12:28;11.73;;;6.18;;
69246;SDS011;56358;56.328;43.992;2022-09-14T06:14:29;13.40;;;6.60;;
69246;SDS011;56358;56.328;43.992;2022-09-14T06:16:30;10.43;;;6.43;;
69246;SDS011;56358;56.328;43.992;2022-09-14T06:18:34;12.00;;;6.13;;
69246;SDS011;56358;56.328;43.992;2022-09-14T06:20:36;10.48;;;6.63;;
69246;SDS011;56358;56.328;43.992;2022-09-14T06:22:37;10.00;;;6.18;;
69246;SDS011;56358;56.328;43.992;2022-09-14T06:24:37;12.35;;;6.10;;
69246;SDS011;56358;56.328;43.992;2022-09-14T06:26:38;9.85;;;6.07;;
69246;SDS011;56358;56.328;43.992;2022-09-14T06:28:39;9.13;;;5.43;;
69246;SDS011;56358;56.328;43.992;2022-09-14T06:30:43;14.98;;;6.55;;
69246;SDS011;56358;56.328;43.992;2022-09-14T06:32:43;8.43;;;5.55;;
69246;SDS011;56358;56.328;43.992;2022-09-14T06:34:44;11.32;;;6.03;;
69246;SDS011;56358;56.328;43.992;2022-09-14T06:36:45;10.63;;;6.18;;
69246;SDS011;56358;56.328;43.992;2022-09-14T06:38:46;11.43;;;6.00;;
69246;SDS011;56358;56.328;43.992;2022-09-14T06:40:54;12.45;;;6.95;;
69246;SDS011;56358;56.328;43.992;2022-09-14T06:42:58;10.43;;;5.80;;
69246;SDS011;56358;56.328;43.992;2022-09-14T06:45:01;11.48;;;6.43;;
69246;SDS011;56358;56.328;43.992;2022-09-14T06:47:04;9.52;;;5.90;;
69246;SDS011;56358;56.328;43.992;2022-09-14T06:49:08;9.77;;;5.82;;
69246;SDS011;56358;56.328;43.992;2022-09-14T06:51:11;9.95;;;5.70;;
69246;SDS011;56358;56.328;43.992;2022-09-14T06:53:16;9.18;;;5.90;;
69246;SDS011;56358;56.328;43.992;2022-09-14T06:55:17;10.27;;;5.70;;
69246;SDS011;56358;56.328;43.992;2022-09-14T06:57:18;8.23;;;5.60;;
69246;SDS011;56358;56.328;43.992;2022-09-14T06:59:18;8.77;;;5.45;;
69246;SDS011;56358;56.328;43.992;2022-09-14T07:01:20;9.30;;;5.75;;
69246;SDS011;56358;56.328;43.992;2022-09-14T07:03:21;9.82;;;5.95;;
69246;SDS011;56358;56.328;43.992;2022-09-14T07:05:22;12.10;;;5.60;;
69246;SDS011;56358;56.328;43.992;2022-09-14T07:07:22;10.73;;;5.82;;
69246;SDS011;56358;56.328;43.992;2022-09-14T07:09:23;9.52;;;5.75;;
69246;SDS011;56358;56.328;43.992;2022-09-14T07:11:26;11.30;;;6.22;;
69246;SDS011;56358;56.328;43.992;2022-09-14T07:13:28;8.55;;;5.32;;
69246;SDS011;56358;56.328;43.992;2022-09-14T07:15:30;10.93;;;5.68;;
69246;SDS011;56358;56.328;43.992;2022-09-14T07:17:30;9.82;;;6.18;;
69246;SDS011;56358;56.328;43.992;2022-09-14T07:19:31;9.82;;;6.68;;
69246;SDS011;56358;56.328;43.992;2022-09-14T07:21:32;8.95;;;5.53;;
69246;SDS011;56358;56.328;43.992;2022-09-14T07:23:37;10.65;;;5.97;;
69246;SDS011;56358;56.328;43.992;2022-09-14T07:25:39;9.43;;;5.90;;
69246;SDS011;56358;56.328;43.992;2022-09-14T07:27:41;12.45;;;5.93;;
69246;SDS011;56358;56.328;43.992;2022-09-14T07:29:42;10.88;;;5.57;;
69246;SDS011;56358;56.328;43.992;2022-09-14T07:31:45;13.50;;;6.07;;
69246;SDS011;56358;56.328;43.992;2022-09-14T07:33:47;13.70;;;5.72;;
69246;SDS011;56358;56.328;43.992;2022-09-14T07:35:51;12.50;;;6.00;;
69246;SDS011;56358;56.328;43.992;2022-09-14T07:37:52;13.32;;;6.28;;
69246;SDS011;56358;56.328;43.992;2022-09-14T07:39:54;10.57;;;5.32;;
69246;SDS011;56358;56.328;43.992;2022-09-14T07:41:56;8.68;;;4.97;;
69246;SDS011;56358;56.328;43.992;2022-09-14T07:43:57;10.70;;;5.65;;
69246;SDS011;56358;56.328;43.992;2022-09-14T07:46:02;13.48;;;6.47;;
69246;SDS011;56358;56.328;43.992;2022-09-14T07:48:04;11.82;;;5.90;;
69246;SDS011;56358;56.328;43.992;2022-09-14T07:50:05;12.68;;;6.47;;
69246;SDS011;56358;56.328;43.992;2022-09-14T07:52:06;10.00;;;5.68;;
69246;SDS011;56358;56.328;43.992;2022-09-14T07:54:09;11.82;;;5.63;;
69246;SDS011;56358;56.328;43.992;2022-09-14T07:56:12;11.13;;;5.80;;
69246;SDS011;56358;56.328;43.992;2022-09-14T07:58:15;13.90;;;5.72;;
69246;SDS011;56358;56.328;43.992;2022-09-14T08:00:16;8.80;;;5.43;;
69246;SDS011;56358;56.328;43.992;2022-09-14T08:02:16;9.68;;;5.38;;
69246;SDS011;56358;56.328;43.992;2022-09-14T08:04:17;9.63;;;6.00;;
69246;SDS011;56358;56.328;43.992;2022-09-14T08:06:19;11.55;;;5.97;;
69246;SDS011;56358;56.328;43.992;2022-09-14T08:08:21;10.13;;;5.97;;
69246;SDS011;56358;56.328;43.992;2022-09-14T08:10:23;11.10;;;5.53;;
69246;SDS011;56358;56.328;43.992;2022-09-14T08:12:25;11.43;;;6.75;;
69246;SDS011;56358;56.328;43.992;2022-09-14T08:14:26;9.73;;;6.13;;
69246;SDS011;56358;56.328;43.992;2022-09-14T08:16:27;9.68;;;5.90;;
69246;SDS011;56358;56.328;43.992;2022-09-14T08:18:29;11.13;;;5.50;;
69246;SDS011;56358;56.328;43.992;2022-09-14T08:20:30;10.50;;;5.60;;
69246;SDS011;56358;56.328;43.992;2022-09-14T08:22:31;12.00;;;6.43;;
69246;SDS011;56358;56.328;43.992;2022-09-14T08:24:31;11.77;;;6.63;;
69246;SDS011;56358;56.328;43.992;2022-09-14T08:26:33;10.93;;;5.25;;
69246;SDS011;56358;56.328;43.992;2022-09-14T08:28:40;9.73;;;5.97;;
69246;SDS011;56358;56.328;43.992;2022-09-14T08:30:41;8.57;;;5.72;;
69246;SDS011;56358;56.328;43.992;2022-09-14T08:32:42;10.02;;;6.38;;
69246;SDS011;56358;56.328;43.992;2022-09-14T08:34:44;10.38;;;6.55;;
69246;SDS011;56358;56.328;43.992;2022-09-14T08:36:45;11.32;;;6.10;;
69246;SDS011;56358;56.328;43.992;2022-09-14T08:38:46;15.57;;;6.22;;
69246;SDS011;56358;56.328;43.992;2022-09-14T08:40:47;11.73;;;6.05;;
69246;SDS011;56358;56.328;43.992;2022-09-14T08:43:01;13.93;;;6.60;;
69246;SDS011;56358;56.328;43.992;2022-09-14T08:45:02;13.30;;;7.15;;
69246;SDS011;56358;56.328;43.992;2022-09-14T08:51:29;10.07;;;6.38;;
69246;SDS011;56358;56.328;43.992;2022-09-14T08:53:31;10.50;;;6.60;;
69246;SDS011;56358;56.328;43.992;2022-09-14T08:55:41;12.77;;;6.90;;
69246;SDS011;56358;56.328;43.992;2022-09-14T09:00:05;13.15;;;6.95;;
69246;SDS011;56358;56.328;43.992;2022-09-14T09:04:54;14.60;;;6.32;;
69246;SDS011;56358;56.328;43.992;2022-09-14T09:07:37;14.77;;;6.70;;
69246;SDS011;56358;56.328;43.992;2022-09-14T09:09:54;12.85;;;6.35;;
69246;SDS011;56358;56.328;43.992;2022-09-14T09:11:56;11.07;;;7.20;;
69246;SDS011;56358;56.328;43.992;2022-09-14T09:13:58;9.57;;;5.88;;
69246;SDS011;56358;56.328;43.992;2022-09-14T09:16:00;9.77;;;6.10;;
69246;SDS011;56358;56.328;43.992;2022-09-14T09:18:06;12.07;;;6.38;;
69246;SDS011;56358;56.328;43.992;2022-09-14T09:20:11;9.90;;;5.75;;
69246;SDS011;56358;56.328;43.992;2022-09-14T09:22:20;10.68;;;7.25;;
69246;SDS011;56358;56.328;43.992;2022-09-14T09:28:25;10.93;;;6.30;;
69246;SDS011;56358;56.328;43.992;2022-09-14T09:30:30;12.85;;;6.13;;
69246;SDS011;56358;56.328;43.992;2022-09-14T09:32:31;11.07;;;6.47;;
69246;SDS011;56358;56.328;43.992;2022-09-14T09:34:34;10.57;;;6.00;;
69246;SDS011;56358;56.328;43.992;2022-09-14T09:36:35;9.57;;;5.88;;
69246;SDS011;56358;56.328;43.992;2022-09-14T09:38:39;11.23;;;5.22;;
69246;SDS011;56358;56.328;43.992;2022-09-14T09:40:41;9.90;;;6.13;;
69246;SDS011;56358;56.328;43.992;2022-09-14T09:45:09;11.25;;;5.80;;
69246;SDS011;56358;56.328;43.992;2022-09-14T09:47:10;8.10;;;5.07;;
69246;SDS011;56358;56.328;43.992;2022-09-14T09:49:17;11.38;;;5.90;;
69246;SDS011;56358;56.328;43.992;2022-09-14T09:55:24;9.10;;;5.00;;
69246;SDS011;56358;56.328;43.992;2022-09-14T10:01:40;8.93;;;5.05;;
69246;SDS011;56358;56.328;43.992;2022-09-14T10:03:40;12.07;;;5.35;;
69246;SDS011;56358;56.328;43.992;2022-09-14T10:05:42;11.55;;;5.25;;
69246;SDS011;56358;56.328;43.992;2022-09-14T10:10:10;12.85;;;5.85;;
69246;SDS011;56358;56.328;43.992;2022-09-14T10:12:12;12.38;;;5.35;;
69246;SDS011;56358;56.328;43.992;2022-09-14T10:14:26;11.80;;;5.80;;
69246;SDS011;56358;56.328;43.992;2022-09-14T10:16:32;10.80;;;5.75;;
69246;SDS011;56358;56.328;43.992;2022-09-14T10:18:43;11.20;;;5.32;;
69246;SDS011;56358;56.328;43.992;2022-09-14T10:22:52;12.15;;;6.15;;
69246;SDS011;56358;56.328;43.992;2022-09-14T10:24:55;12.35;;;6.03;;
69246;SDS011;56358;56.328;43.992;2022-09-14T10:26:58;10.48;;;5.90;;
69246;SDS011;56358;56.328;43.992;2022-09-14T10:31:28;9.30;;;5.13;;
69246;SDS011;56358;56.328;43.992;2022-09-14T10:33:31;10.20;;;5.25;;
69246;SDS011;56358;56.328;43.992;2022-09-14T10:35:45;10.20;;;5.72;;
69246;SDS011;56358;56.328;43.992;2022-09-14T10:40:17;18.38;;;6.90;;
69246;SDS011;56358;56.328;43.992;2022-09-14T10:42:24;16.63;;;6.03;;
69246;SDS011;56358;56.328;43.992;2022-09-14T10:44:37;12.15;;;5.60;;
69246;SDS011;56358;56.328;43.992;2022-09-14T10:59:25;7.40;;;4.25;;
69246;SDS011;56358;56.328;43.992;2022-09-14T11:06:04;8.10;;;5.00;;
69246;SDS011;56358;56.328;43.992;2022-09-14T11:24:39;26.05;;;9.82;;
69246;SDS011;56358;56.328;43.992;2022-09-14T11:31:24;10.02;;;5.22;;
69246;SDS011;56358;56.328;43.992;2022-09-14T11:33:35;10.07;;;5.40;;
69246;SDS011;56358;56.328;43.992;2022-09-14T11:35:56;9.25;;;5.10;;
69246;SDS011;56358;56.328;43.992;2022-09-14T11:38:00;9.52;;;5.35;;
69246;SDS011;56358;56.328;43.992;2022-09-14T11:40:15;10.65;;;5.10;;
69246;SDS011;56358;56.328;43.992;2022-09-14T11:42:19;12.02;;;5.82;;
69246;SDS011;56358;56.328;43.992;2022-09-14T11:44:48;7.53;;;5.45;;
69246;SDS011;56358;56.328;43.992;2022-09-14T11:53:46;9.25;;;5.05;;
69246;SDS011;56358;56.328;43.992;2022-09-14T11:55:48;8.60;;;4.20;;
69246;SDS011;56358;56.328;43.992;2022-09-14T11:57:49;13.20;;;5.53;;
69246;SDS011;56358;56.328;43.992;2022-09-14T11:59:52;8.27;;;4.88;;
69246;SDS011;56358;56.328;43.992;2022-09-14T12:01:53;10.35;;;5.38;;
69246;SDS011;56358;56.328;43.992;2022-09-14T12:06:09;8.45;;;4.80;;
69246;SDS011;56358;56.328;43.992;2022-09-14T12:10:31;9.23;;;4.28;;
69246;SDS011;56358;56.328;43.992;2022-09-14T12:17:25;11.30;;;5.10;;
69246;SDS011;56358;56.328;43.992;2022-09-14T12:19:30;8.90;;;4.75;;
69246;SDS011;56358;56.328;43.992;2022-09-14T12:21:31;8.23;;;4.95;;
69246;SDS011;56358;56.328;43.992;2022-09-14T12:23:42;9.35;;;5.28;;
69246;SDS011;56358;56.328;43.992;2022-09-14T12:28:26;9.80;;;4.95;;
69246;SDS011;56358;56.328;43.992;2022-09-14T12:32:42;12.15;;;5.00;;
69246;SDS011;56358;56.328;43.992;2022-09-14T12:34:43;10.48;;;4.70;;
69246;SDS011;56358;56.328;43.992;2022-09-14T12:40:54;7.88;;;4.43;;
69246;SDS011;56358;56.328;43.992;2022-09-14T12:42:56;10.80;;;4.72;;
69246;SDS011;56358;56.328;43.992;2022-09-14T12:45:46;11.07;;;4.93;;
69246;SDS011;56358;56.328;43.992;2022-09-14T12:47:51;16.02;;;5.00;;
69246;SDS011;56358;56.328;43.992;2022-09-14T12:49:52;11.05;;;4.65;;
69246;SDS011;56358;56.328;43.992;2022-09-14T12:51:58;8.75;;;4.55;;
69246;SDS011;56358;56.328;43.992;2022-09-14T12:56:12;11.45;;;5.03;;
69246;SDS011;56358;56.328;43.992;2022-09-14T12:58:34;11.65;;;5.38;;
69246;SDS011;56358;56.328;43.992;2022-09-14T13:01:03;13.50;;;5.30;;
69246;SDS011;56358;56.328;43.992;2022-09-14T13:03:31;10.77;;;4.57;;
69246;SDS011;56358;56.328;43.992;2022-09-14T13:05:42;9.85;;;5.00;;
69246;SDS011;56358;56.328;43.992;2022-09-14T13:07:44;8.68;;;5.28;;
69246;SDS011;56358;56.328;43.992;2022-09-14T13:09:47;10.55;;;5.03;;
69246;SDS011;56358;56.328;43.992;2022-09-14T13:11:57;8.55;;;5.45;;
69246;SDS011;56358;56.328;43.992;2022-09-14T13:14:03;10.98;;;5.40;;
69246;SDS011;56358;56.328;43.992;2022-09-14T13:16:05;12.15;;;6.55;;
69246;SDS011;56358;56.328;43.992;2022-09-14T13:20:16;13.13;;;7.13;;
69246;SDS011;56358;56.328;43.992;2022-09-14T13:22:18;13.73;;;7.40;;
69246;SDS011;56358;56.328;43.992;2022-09-14T13:24:23;11.93;;;7.22;;
69246;SDS011;56358;56.328;43.992;2022-09-14T13:26:33;14.10;;;6.50;;
69246;SDS011;56358;56.328;43.992;2022-09-14T13:28:34;17.13;;;7.07;;
69246;SDS011;56358;56.328;43.992;2022-09-14T13:30:35;11.40;;;5.65;;
69246;SDS011;56358;56.328;43.992;2022-09-14T13:32:43;10.82;;;5.43;;
69246;SDS011;56358;56.328;43.992;2022-09-14T13:34:46;7.85;;;4.78;;
69246;SDS011;56358;56.328;43.992;2022-09-14T13:36:47;10.23;;;4.93;;
69246;SDS011;56358;56.328;43.992;2022-09-14T13:38:49;10.73;;;4.45;;
69246;SDS011;56358;56.328;43.992;2022-09-14T13:40:51;11.20;;;5.38;;
69246;SDS011;56358;56.328;43.992;2022-09-14T13:42:54;8.55;;;4.68;;
69246;SDS011;56358;56.328;43.992;2022-09-14T13:44:57;10.55;;;5.00;;
69246;SDS011;56358;56.328;43.992;2022-09-14T13:47:00;9.15;;;4.57;;
69246;SDS011;56358;56.328;43.992;2022-09-14T13:49:04;13.50;;;5.55;;
69246;SDS011;56358;56.328;43.992;2022-09-14T13:51:06;9.18;;;4.70;;
69246;SDS011;56358;56.328;43.992;2022-09-14T13:57:37;7.72;;;4.35;;
69246;SDS011;56358;56.328;43.992;2022-09-14T14:02:16;7.85;;;4.57;;
69246;SDS011;56358;56.328;43.992;2022-09-14T14:04:20;18.35;;;9.93;;
69246;SDS011;56358;56.328;43.992;2022-09-14T14:08:43;8.68;;;4.18;;
69246;SDS011;56358;56.328;43.992;2022-09-14T14:10:44;10.85;;;4.82;;
69246;SDS011;56358;56.328;43.992;2022-09-14T14:15:00;16.38;;;10.10;;
69246;SDS011;56358;56.328;43.992;2022-09-14T14:19:28;7.78;;;4.05;;
69246;SDS011;56358;56.328;43.992;2022-09-14T14:21:31;7.57;;;4.50;;
69246;SDS011;56358;56.328;43.992;2022-09-14T14:23:32;7.40;;;4.38;;
69246;SDS011;56358;56.328;43.992;2022-09-14T14:25:35;10.18;;;4.32;;
69246;SDS011;56358;56.328;43.992;2022-09-14T14:27:41;9.38;;;4.32;;
69246;SDS011;56358;56.328;43.992;2022-09-14T14:29:43;7.20;;;4.15;;
69246;SDS011;56358;56.328;43.992;2022-09-14T14:31:44;8.13;;;4.50;;